Time;durP1;ratioP1;P1;durP2;ratioP2;P2;SDS_P1;SDS_P2;PMS_P1;PMS_P2;Temp;Humidity;BMP_temperature;BMP_pressure;BME280_temperature;BME280_humidity;BME280_pressure;Samples;Min_cycle;Max_cycle;Signal;HPM_P1;HPM_P2
2022/07/30 00:02:03;;;;;;;;;;;;;;;;;;6030071;23;8664;-84
2022/07/30 00:04:29;;;;;;;;;;;;;;;;;;6031475;23;8460;-84
2022/07/30 00:06:54;;;;;;;;;;;;;;;;;;6031760;23;7129;-85
2022/07/30 00:09:19;;;;;;;;;;;;;;;;;;6032078;23;8265;-84
2022/07/30 00:11:45;;;;;;;;;;;;;;;;;;6031324;23;6998;-84
2022/07/30 00:14:11;;;;;;;;;;;;;;;;;;6032408;23;7207;-84
2022/07/30 00:16:37;;;;;;;;;;;;;;;;;;6032180;23;7120;-84
2022/07/30 00:19:03;;;;;;;;;;;;;;;;;;6032290;23;6994;-85
2022/07/30 00:21:29;;;;;;;;;;;;;;;;;;6031396;23;8438;-84
2022/07/30 00:23:54;;;;;;;;;;;;;;;;;;6032367;23;7146;-84
2022/07/30 00:26:20;;;;;;;;;;;;;;;;;;6031972;23;7185;-84
2022/07/30 00:28:45;;;;;;;;;;;;;;;;;;6032192;23;8359;-83
2022/07/30 00:31:11;;;;;;;;;;;;;;;;;;6031501;23;8356;-84
2022/07/30 00:33:37;;;;;;;;;;;;;;;;;;6032074;23;8373;-84
2022/07/30 00:36:02;;;;;;;;;;;;;;;;;;6032251;23;8299;-85
2022/07/30 00:38:28;;;;;;;;;;;;;;;;;;6031534;23;7071;-85
2022/07/30 00:40:54;;;;;;;;;;;;;;;;;;6031424;23;8616;-85
2022/07/30 00:43:20;;;;;;;;;;;;;;;;;;6031382;23;8361;-85
2022/07/30 00:45:45;;;;;;;;;;;;;;;;;;6031890;23;8402;-83
2022/07/30 00:48:12;;;;;;;;;;;;;;;;;;6031701;23;7002;-84
2022/07/30 00:50:38;;;;;;;;;;;;;;;;;;6031806;23;7215;-83
2022/07/30 00:53:04;;;;;;;;;;;;;;;;;;6031882;23;7123;-83
2022/07/30 00:55:31;;;;;;;;;;;;;;;;;;6033068;23;7264;-83
2022/07/30 00:57:56;;;;;;;;;;;;;;;;;;6032575;23;6869;-83
2022/07/30 01:00:23;;;;;;;;;;;;;;;;;;6031557;23;8342;-86
2022/07/30 01:02:48;;;;;;;;;;;;;;;;;;6031120;23;6984;-84
2022/07/30 01:05:14;;;;;;;;;;;;;;;;;;6030913;23;8460;-84
2022/07/30 01:07:41;;;;;;;;;;;;;;;;;;6032373;23;7119;-84
2022/07/30 01:10:08;;;;;;;;;;;;;;;;;;6031074;23;8557;-83
2022/07/30 01:12:33;;;;;;;;;;;;;;;;;;6031098;23;6823;-84
2022/07/30 01:15:01;;;;;;;;;;;;;;;;;;6031643;23;7186;-83
2022/07/30 01:17:27;;;;;;;;;;;;;;;;;;6031569;23;7147;-84
2022/07/30 01:19:57;;;;;;;;;;;;;;;;;;6031878;23;8248;-84
2022/07/30 01:22:33;;;;;;;;;;;;;;;;;;6031197;23;7325;-84
2022/07/30 01:25:01;;;;;;;;;;;;;;;;;;6031289;23;7354;-84
2022/07/30 01:27:28;;;;;;;;;;;;;;;;;;6007437;23;7217;-84
2022/07/30 01:29:55;;;;;;;;;;;;;;;;;;6031326;23;8404;-84
2022/07/30 01:32:24;;;;;;;;;;;;;;;;;;6031611;23;8402;-84
2022/07/30 01:34:52;;;;;;;;;;;;;;;;;;6031700;23;7130;-84
2022/07/30 01:37:20;;;;;;;;;;;;;;;;;;6031652;23;7015;-83
2022/07/30 01:39:47;;;;;;;;;;;;;;;;;;6031662;23;8546;-84
2022/07/30 01:42:14;;;;;;;;;;;;;;;;;;6031548;23;7039;-84
2022/07/30 01:44:41;;;;;;;;;;;;;;;;;;6031371;23;8417;-83
2022/07/30 01:47:08;;;;;;;;;;;;;;;;;;6031135;23;7101;-84
2022/07/30 01:49:36;;;;;;;;;;;;;;;;;;6031006;23;6981;-85
2022/07/30 01:52:04;;;;;;;;;;;;;;;;;;6031315;23;8403;-83
2022/07/30 01:54:32;;;;;;;;;;;;;;;;;;6031816;23;8405;-84
2022/07/30 01:57:00;;;;;;;;;;;;;;;;;;6033007;23;6993;-82
2022/07/30 01:59:30;;;;;;;;;;;;;;;;;;6033449;23;7504;-84
2022/07/30 02:01:57;;;;;;;;;;;;;;;;;;6033042;23;8653;-83
2022/07/30 02:04:23;;;;;;;;;;;;;;;;;;6032732;23;8830;-84
2022/07/30 02:07:07;;;;;;;;;;;;;;;;;;6033594;23;8403;-84
2022/07/30 02:09:36;;;;;;;;;;;;;;;;;;5985567;24;8316;-84
2022/07/30 02:14:53;;;;;;;;;;;;;;;;;;5986895;24;6973;-82
2022/07/30 02:17:28;;;;;;;;;;;;;;;;;;6032965;23;7018;-84
2022/07/30 02:19:56;;;;;;;;;;;;;;;;;;6033448;23;8743;-84
2022/07/30 02:22:24;;;;;;;;;;;;;;;;;;6032547;23;7150;-84
2022/07/30 02:24:51;;;;;;;;;;;;;;;;;;6032961;23;8398;-82
2022/07/30 02:27:23;;;;;;;;;;;;;;;;;;6033075;23;9255;-83
2022/07/30 02:29:51;;;;;;;;;;;;;;;;;;6032744;23;6906;-84
2022/07/30 02:32:20;;;;;;;;;;;;;;;;;;6033434;23;8742;-84
2022/07/30 02:34:49;;;;;;;;;;;;;;;;;;6032756;23;7030;-84
2022/07/30 02:37:21;;;;;;;;;;;;;;;;;;6033482;23;8564;-84
2022/07/30 02:39:48;;;;;;;;;;;;;;;;;;6033519;23;7026;-84
2022/07/30 02:42:16;;;;;;;;;;;;;;;;;;6032619;23;8329;-84
2022/07/30 02:44:43;;;;;;;;;;;;;;;;;;6032492;23;6825;-82
2022/07/30 02:47:11;;;;;;;;;;;;;;;;;;6032945;23;8678;-85
2022/07/30 02:49:38;;;;;;;;;;;;;;;;;;6032546;23;7123;-83
2022/07/30 02:52:12;;;;;;;;;;;;;;;;;;6032718;23;8655;-84
2022/07/30 02:54:42;;;;;;;;;;;;;;;;;;6032660;23;8636;-83
2022/07/30 02:57:09;;;;;;;;;;;;;;;;;;6032282;23;6986;-85
2022/07/30 02:59:37;;;;;;;;;;;;;;;;;;6008882;23;7392;-84
2022/07/30 03:02:04;;;;;;;;;;;;;;;;;;6032585;23;7013;-84
2022/07/30 03:04:31;;;;;;;;;;;;;;;;;;6032683;23;7255;-84
2022/07/30 03:06:58;;;;;;;;;;;;;;;;;;6032274;23;7149;-84
2022/07/30 03:09:25;;;;;;;;;;;;;;;;;;6032403;23;7911;-84
2022/07/30 03:11:52;;;;;;;;;;;;;;;;;;6032831;23;8362;-83
2022/07/30 03:14:18;;;;;;;;;;;;;;;;;;6032168;23;8368;-84
2022/07/30 03:16:50;;;;;;;;;;;;;;;;;;6032333;23;8358;-84
2022/07/30 03:19:19;;;;;;;;;;;;;;;;;;6033295;23;8384;-83
2022/07/30 03:21:47;;;;;;;;;;;;;;;;;;6031833;23;8742;-84
2022/07/30 03:24:14;;;;;;;;;;;;;;;;;;6032571;23;8789;-82
2022/07/30 03:26:42;;;;;;;;;;;;;;;;;;6032109;23;8464;-84
2022/07/30 03:29:09;;;;;;;;;;;;;;;;;;6031990;23;8371;-85
2022/07/30 03:31:37;;;;;;;;;;;;;;;;;;6032529;23;7052;-85
2022/07/30 03:34:05;;;;;;;;;;;;;;;;;;6032791;23;7220;-85
2022/07/30 03:36:31;;;;;;;;;;;;;;;;;;6032419;23;6923;-86
2022/07/30 03:38:57;;;;;;;;;;;;;;;;;;6032517;23;8455;-85
2022/07/30 03:41:23;;;;;;;;;;;;;;;;;;6032218;23;8710;-83
2022/07/30 03:43:50;;;;;;;;;;;;;;;;;;6031758;23;7166;-83
2022/07/30 03:46:17;;;;;;;;;;;;;;;;;;6031994;23;8343;-84
2022/07/30 03:48:43;;;;;;;;;;;;;;;;;;6032524;23;8384;-85
2022/07/30 03:51:10;;;;;;;;;;;;;;;;;;6031820;23;6800;-82
2022/07/30 03:53:38;;;;;;;;;;;;;;;;;;6031989;23;7212;-84
2022/07/30 03:56:06;;;;;;;;;;;;;;;;;;6031660;23;7023;-83
2022/07/30 03:58:32;;;;;;;;;;;;;;;;;;6031527;23;7086;-83
2022/07/30 04:00:57;;;;;;;;;;;;;;;;;;6031835;23;8375;-83
2022/07/30 04:03:27;;;;;;;;;;;;;;;;;;6031815;23;7306;-85
2022/07/30 04:05:52;;;;;;;;;;;;;;;;;;6032484;23;7162;-86
2022/07/30 04:08:19;;;;;;;;;;;;;;;;;;6031978;23;8760;-85
2022/07/30 04:10:44;;;;;;;;;;;;;;;;;;6031695;23;6923;-83
2022/07/30 04:13:10;;;;;;;;;;;;;;;;;;6031919;23;7126;-83
2022/07/30 04:15:54;;;;;;;;;;;;;;;;;;6031620;23;7170;-83
2022/07/30 04:18:23;;;;;;;;;;;;;;;;;;5984868;24;8395;-83
2022/07/30 04:20:51;;;;;;;;;;;;;;;;;;6032275;23;9275;-83
2022/07/30 04:23:18;;;;;;;;;;;;;;;;;;6032308;23;7302;-84
2022/07/30 04:25:45;;;;;;;;;;;;;;;;;;6032111;23;6811;-85
2022/07/30 04:28:12;;;;;;;;;;;;;;;;;;6031757;23;8416;-83
2022/07/30 04:30:39;;;;;;;;;;;;;;;;;;6031440;23;7023;-82
2022/07/30 04:33:07;;;;;;;;;;;;;;;;;;6031748;23;7237;-82
2022/07/30 04:35:33;;;;;;;;;;;;;;;;;;6031748;23;8394;-84
2022/07/30 04:38:02;;;;;;;;;;;;;;;;;;6032154;23;7140;-83
2022/07/30 04:40:28;;;;;;;;;;;;;;;;;;6031702;23;7322;-82
2022/07/30 04:42:54;;;;;;;;;;;;;;;;;;6031709;23;7024;-84
2022/07/30 04:45:21;;;;;;;;;;;;;;;;;;6031397;23;7109;-84
2022/07/30 04:47:46;;;;;;;;;;;;;;;;;;6031298;23;8594;-83
2022/07/30 04:50:13;;;;;;;;;;;;;;;;;;6031714;23;7240;-83
2022/07/30 04:52:41;;;;;;;;;;;;;;;;;;6031571;23;8476;-84
2022/07/30 04:55:09;;;;;;;;;;;;;;;;;;6031277;23;7024;-83
2022/07/30 04:57:39;;;;;;;;;;;;;;;;;;6031223;23;7343;-83
2022/07/30 05:00:05;;;;;;;;;;;;;;;;;;6031735;23;7041;-83
2022/07/30 05:02:34;;;;;;;;;;;;;;;;;;6032324;23;8401;-85
2022/07/30 05:05:00;;;;;;;;;;;;;;;;;;6031160;23;8866;-82
2022/07/30 05:07:27;;;;;;;;;;;;;;;;;;6031901;23;8405;-82
2022/07/30 05:09:53;;;;;;;;;;;;;;;;;;6031877;23;7000;-82
2022/07/30 05:12:18;;;;;;;;;;;;;;;;;;5984332;24;7232;-82
2022/07/30 05:14:44;;;;;;;;;;;;;;;;;;5984603;24;7861;-83
2022/07/30 05:17:09;;;;;;;;;;;;;;;;;;5984172;24;6895;-82
2022/07/30 05:19:35;;;;;;;;;;;;;;;;;;5984521;24;8738;-83
2022/07/30 05:22:01;;;;;;;;;;;;;;;;;;5984567;24;8393;-84
2022/07/30 05:24:26;;;;;;;;;;;;;;;;;;5984286;24;8369;-85
2022/07/30 05:26:52;;;;;;;;;;;;;;;;;;5983884;24;7230;-83
2022/07/30 05:29:17;;;;;;;;;;;;;;;;;;5984158;24;8669;-83
2022/07/30 05:31:43;;;;;;;;;;;;;;;;;;5984181;24;8409;-82
2022/07/30 05:34:09;;;;;;;;;;;;;;;;;;5984444;24;8410;-83
2022/07/30 05:36:34;;;;;;;;;;;;;;;;;;5983242;24;7842;-83
2022/07/30 05:39:00;;;;;;;;;;;;;;;;;;5982042;24;8398;-83
2022/07/30 05:41:29;;;;;;;;;;;;;;;;;;5983680;24;8381;-83
2022/07/30 05:43:55;;;;;;;;;;;;;;;;;;5983924;24;7315;-84
2022/07/30 05:46:21;;;;;;;;;;;;;;;;;;5982952;24;7047;-85
2022/07/30 05:48:47;;;;;;;;;;;;;;;;;;5983773;24;8410;-83
2022/07/30 05:51:13;;;;;;;;;;;;;;;;;;5983944;24;6908;-83
2022/07/30 05:53:39;;;;;;;;;;;;;;;;;;5983816;24;7044;-85
2022/07/30 05:56:04;;;;;;;;;;;;;;;;;;5983297;24;8397;-79
2022/07/30 05:58:30;;;;;;;;;;;;;;;;;;5984568;24;6801;-80
2022/07/30 06:00:56;;;;;;;;;;;;;;;;;;5984237;24;6977;-79
2022/07/30 06:03:21;;;;;;;;;;;;;;;;;;5983667;24;7073;-77
2022/07/30 06:05:47;;;;;;;;;;;;;;;;;;5984302;24;8824;-77
2022/07/30 06:08:13;;;;;;;;;;;;;;;;;;5985452;24;7427;-77
2022/07/30 06:10:38;;;;;;;;;;;;;;;;;;5983549;24;8732;-77
2022/07/30 06:13:04;;;;;;;;;;;;;;;;;;5984188;24;8387;-77
2022/07/30 06:15:30;;;;;;;;;;;;;;;;;;5984415;24;7049;-79
2022/07/30 06:17:55;;;;;;;;;;;;;;;;;;5983955;24;8457;-69
2022/07/30 06:20:21;;;;;;;;;;;;;;;;;;5983659;24;8414;-79
2022/07/30 06:22:46;;;;;;;;;;;;;;;;;;5984509;24;7125;-78
2022/07/30 06:25:12;;;;;;;;;;;;;;;;;;5984043;24;6797;-78
2022/07/30 06:27:38;;;;;;;;;;;;;;;;;;5984183;24;8427;-79
2022/07/30 06:30:06;;;;;;;;;;;;;;;;;;5983872;24;7018;-79
2022/07/30 06:32:32;;;;;;;;;;;;;;;;;;5983814;24;8478;-79
2022/07/30 06:34:59;;;;;;;;;;;;;;;;;;5983958;24;8747;-79
2022/07/30 06:37:24;;;;;;;;;;;;;;;;;;5984407;24;8580;-79
2022/07/30 06:39:50;;;;;;;;;;;;;;;;;;5983481;24;6975;-78
2022/07/30 06:42:16;;;;;;;;;;;;;;;;;;5984430;24;6913;-79
2022/07/30 06:44:41;;;;;;;;;;;;;;;;;;5985933;24;8463;-80
2022/07/30 06:47:07;;;;;;;;;;;;;;;;;;5985088;24;7116;-79
2022/07/30 06:49:34;;;;;;;;;;;;;;;;;;6032176;23;8591;-78
2022/07/30 06:52:00;;;;;;;;;;;;;;;;;;5986024;24;8345;-79
2022/07/30 06:54:26;;;;;;;;;;;;;;;;;;6032094;23;7535;-79
2022/07/30 06:56:52;;;;;;;;;;;;;;;;;;6032549;23;8367;-79
2022/07/30 06:59:17;;;;;;;;;;;;;;;;;;6032511;23;8408;-79
2022/07/30 07:01:43;;;;;;;;;;;;;;;;;;6032267;23;7015;-79
2022/07/30 07:04:08;;;;;;;;;;;;;;;;;;6032557;23;8732;-80
2022/07/30 07:06:34;;;;;;;;;;;;;;;;;;6032123;23;8029;-79
2022/07/30 07:09:00;;;;;;;;;;;;;;;;;;6032086;23;7206;-79
2022/07/30 07:11:25;;;;;;;;;;;;;;;;;;6032494;23;8370;-80
2022/07/30 07:13:50;;;;;;;;;;;;;;;;;;6027191;23;8445;-79
2022/07/30 07:16:20;;;;;;;;;;;;;;;;;;6030289;23;8528;-84
2022/07/30 07:18:47;;;;;;;;;;;;;;;;;;6030027;23;7234;-83
2022/07/30 07:21:13;;;;;;;;;;;;;;;;;;6029551;23;8460;-82
2022/07/30 07:23:38;;;;;;;;;;;;;;;;;;6028911;23;8434;-83
2022/07/30 07:26:04;;;;;;;;;;;;;;;;;;6030969;23;7198;-84
2022/07/30 07:28:29;;;;;;;;;;;;;;;;;;6032098;23;8376;-84
2022/07/30 07:30:55;;;;;;;;;;;;;;;;;;6031920;23;8744;-84
2022/07/30 07:33:21;;;;;;;;;;;;;;;;;;6031880;23;8463;-83
2022/07/30 07:35:46;;;;;;;;;;;;;;;;;;6032074;23;8730;-83
2022/07/30 07:38:11;;;;;;;;;;;;;;;;;;6032224;23;8678;-86
2022/07/30 07:40:37;;;;;;;;;;;;;;;;;;6032128;23;8265;-84
2022/07/30 07:43:04;;;;;;;;;;;;;;;;;;6032256;23;6954;-83
2022/07/30 07:45:30;;;;;;;;;;;;;;;;;;6031812;23;7252;-84
2022/07/30 07:47:56;;;;;;;;;;;;;;;;;;6031871;23;8399;-73
2022/07/30 07:50:21;;;;;;;;;;;;;;;;;;6032052;23;8457;-81
2022/07/30 07:52:48;;;;;;;;;;;;;;;;;;6033226;23;7158;-73
2022/07/30 07:55:13;;;;;;;;;;;;;;;;;;6031298;23;6830;-75
2022/07/30 07:57:43;;;;;;;;;;;;;;;;;;6032876;23;8491;-75
2022/07/30 08:00:10;;;;;;;;;;;;;;;;;;6031676;23;8981;-75
2022/07/30 08:02:36;;;;;;;;;;;;;;;;;;6032078;23;7005;-76
2022/07/30 08:05:04;;;;;;;;;;;;;;;;;;6032140;23;8853;-75
2022/07/30 08:07:30;;;;;;;;;;;;;;;;;;6031935;23;9293;-75
2022/07/30 08:09:55;;;;;;;;;;;;;;;;;;6031618;23;8769;-74
2022/07/30 08:12:21;;;;;;;;;;;;;;;;;;6031880;23;7142;-81
2022/07/30 08:14:47;;;;;;;;;;;;;;;;;;6031914;23;7024;-75
2022/07/30 08:17:12;;;;;;;;;;;;;;;;;;6031159;23;6999;-76
2022/07/30 08:19:38;;;;;;;;;;;;;;;;;;6031485;23;8383;-75
2022/07/30 08:22:04;;;;;;;;;;;;;;;;;;6031458;23;8753;-76
2022/07/30 08:24:30;;;;;;;;;;;;;;;;;;6031852;23;7270;-81
2022/07/30 08:26:55;;;;;;;;;;;;;;;;;;6031291;23;7000;-81
2022/07/30 08:29:21;;;;;;;;;;;;;;;;;;6031936;23;7081;-80
2022/07/30 08:31:46;;;;;;;;;;;;;;;;;;6031481;23;8494;-82
2022/07/30 08:34:12;;;;;;;;;;;;;;;;;;6031055;23;8810;-82
2022/07/30 08:36:38;;;;;;;;;;;;;;;;;;6031360;23;9079;-81
2022/07/30 08:39:04;;;;;;;;;;;;;;;;;;6031312;23;8421;-79
2022/07/30 08:41:30;;;;;;;;;;;;;;;;;;6031080;23;8551;-79
2022/07/30 08:43:59;;;;;;;;;;;;;;;;;;6031410;23;9377;-82
2022/07/30 08:50:13;;;;;;;;;;;;;;;;;;5033000;28;6604;-55
2022/07/30 08:55:38;;;;;;;;;;;;;;;;;;5011442;28;6984;-59
2022/07/30 08:58:26;;;;;;;;;;;;;;;;;;5010520;28;7437;-57
2022/07/30 09:00:52;;;;;;;;;;;;;;;;;;5011797;28;7119;-58
2022/07/30 09:03:37;;;;;;;;;;;;;;;;;;5011573;28;7249;-58
2022/07/30 09:06:04;;;;;;;;;;;;;;;;;;5011657;28;7457;-56
2022/07/30 09:08:52;;;;;;;;;;;;;;;;;;5010567;28;7025;-59
2022/07/30 09:11:17;;;;;;;;;;;;;;;;;;5011471;28;7194;-58
2022/07/30 09:14:09;;;;;;;;;;;;;;;;;;5011392;28;7419;-58
2022/07/30 09:16:35;;;;;;;;;;;;;;;;;;5011401;28;7425;-57
2022/07/30 09:19:39;;;;;;;;;;;;;;;;;;5010732;28;8179;-56
2022/07/30 09:22:05;;;;;;;;;;;;;;;;;;5009103;28;7222;-57
2022/07/30 09:24:41;;;;;;;;;;;;;;;;;;5009243;28;7065;-57
2022/07/30 09:27:08;;;;;;;;;;;;;;;;;;5008799;28;7085;-57
2022/07/30 09:29:53;;;;;;;;;;;;;;;;;;5008860;28;7230;-57
2022/07/30 09:32:18;;;;;;;;;;;;;;;;;;5009575;28;7107;-57
2022/07/30 09:34:54;;;;;;;;;;;;;;;;;;5009638;28;7942;-59
2022/07/30 09:37:20;;;;;;;;;;;;;;;;;;5010117;28;7393;-56
2022/07/30 09:40:14;;;;;;;;;;;;;;;;;;5009766;28;7117;-56
2022/07/30 09:42:39;;;;;;;;;;;;;;;;;;5010345;28;7469;-57
2022/07/30 09:45:06;;;;;;;;;;;;;;;;;;5009404;28;7226;-56
2022/07/30 09:47:34;;;;;;;;;;;;;;;;;;5008568;28;8786;-60
2022/07/30 09:50:10;;;;;;;;;;;;;;;;;;5008799;28;7276;-61
2022/07/30 09:52:46;;;;;;;;;;;;;;;;;;5009406;28;7091;-61
2022/07/30 09:55:13;;;;;;;;;;;;;;;;;;5010223;28;8482;-59
2022/07/30 10:03:45;;;;;;;;;;;;;;;;;;4997857;28;6972;-58
2022/07/30 10:06:11;;;;;;;;;;;;;;;;;;4998041;28;6994;-58
2022/07/30 10:08:42;;;;;;;;;;;;;;;;;;4997794;28;7100;-58
2022/07/30 10:11:29;;;;;;;;;;;;;;;;;;4997664;28;6978;-57
2022/07/30 10:13:57;;;;;;;;;;;;;;;;;;4997828;28;7183;-57
2022/07/30 10:16:39;;;;;;;;;;;;;;;;;;4997968;28;6986;-57
2022/07/30 10:19:05;;;;;;;;;;;;;;;;;;4997740;28;7103;-57
2022/07/30 10:21:31;;;;;;;;;;;;;;;;;;4997810;28;7183;-58
2022/07/30 10:23:57;;;;;;;;;;;;;;;;;;4997675;28;7058;-57
2022/07/30 10:26:26;;;;;;;;;;;;;;;;;;4997749;28;7213;-57
2022/07/30 10:28:52;;;;;;;;;;;;;;;;;;4997500;28;7094;-57
2022/07/30 13:42:31;;;;;;;;;;;;;;;;;;5051716;28;6620;-58
2022/07/30 13:44:57;;;;;;;;;;;;;;;;;;5031725;28;7052;-56
2022/07/30 13:47:28;;;;;;;;;;;;;;;;;;5031815;28;7392;-57
2022/07/30 13:49:53;;;;;;;;;;;;;;;;;;5031626;28;7605;-57
2022/07/30 13:55:22;;;;;;;;;;;;;;;;;;5030979;28;7030;-57
2022/07/30 13:58:07;;;;;;;;;;;;;;;;;;5030835;28;7092;-56
2022/07/30 14:00:47;;;;;;;;;;;;;;;;;;5031628;28;7415;-56
2022/07/30 14:03:20;;;;;;;;;;;;;;;;;;5031708;28;6998;-56
2022/07/30 14:05:47;;;;;;;;;;;;;;;;;;5031117;28;7559;-60
2022/07/30 14:11:35;;;;;;;;;;;;;;;;;;5030757;28;6751;-57
2022/07/30 14:14:01;;;;;;;;;;;;;;;;;;5031168;28;7241;-61
2022/07/30 14:16:33;;;;;;;;;;;;;;;;;;5031246;28;7184;-61
2022/07/30 14:22:09;;;;;;;;;;;;;;;;;;5030931;28;6967;-58
2022/07/30 14:24:50;;;;;;;;;;;;;;;;;;5031006;28;7033;-60
2022/07/30 14:30:34;;;;;;;;;;;;;;;;;;5011070;28;6778;-61
2022/07/30 14:32:59;;;;;;;;;;;;;;;;;;5010852;28;7627;-60
2022/07/30 14:35:27;;;;;;;;;;;;;;;;;;5011225;28;7632;-58
2022/07/30 14:38:15;;;;;;;;;;;;;;;;;;5010778;28;7231;-58
2022/07/30 14:40:41;;;;;;;;;;;;;;;;;;5010635;28;7065;-60
2022/07/30 14:43:29;;;;;;;;;;;;;;;;;;5011190;28;7612;-60
2022/07/30 14:45:55;;;;;;;;;;;;;;;;;;5011153;28;7065;-61
2022/07/30 14:51:25;;;;;;;;;;;;;;;;;;5010704;28;6780;-60
2022/07/30 14:53:56;;;;;;;;;;;;;;;;;;4997390;28;7161;-62
2022/07/30 14:56:23;;;;;;;;;;;;;;;;;;4997205;28;7387;-62
2022/07/30 14:58:58;;;;;;;;;;;;;;;;;;4997618;28;6991;-60
2022/07/30 15:07:34;;;;;;;;;;;;;;;;;;4997764;28;7864;-60
2022/07/30 15:10:00;;;;;;;;;;;;;;;;;;4997082;28;8027;-60
2022/07/30 15:12:25;;;;;;;;;;;;;;;;;;4997495;28;7099;-60
2022/07/30 15:15:13;;;;;;;;;;;;;;;;;;4997136;28;7464;-59
2022/07/30 15:17:59;;;;;;;;;;;;;;;;;;4997044;28;7310;-60
2022/07/30 15:20:30;;;;;;;;;;;;;;;;;;4997086;28;7160;-58
2022/07/30 15:22:55;;;;;;;;;;;;;;;;;;4997353;28;7210;-60
2022/07/30 15:25:37;;;;;;;;;;;;;;;;;;4996552;28;7183;-61
2022/07/30 15:28:03;;;;;;;;;;;;;;;;;;4997001;28;7023;-60
2022/07/30 15:30:29;;;;;;;;;;;;;;;;;;4997177;28;7202;-58
2022/07/30 15:36:02;;;;;;;;;;;;;;;;;;4996783;28;7054;-58
2022/07/30 15:41:31;;;;;;;;;;;;;;;;;;4995979;28;6730;-58
2022/07/30 15:44:04;;;;;;;;;;;;;;;;;;4996845;28;7633;-57
2022/07/30 15:46:56;;;;;;;;;;;;;;;;;;4996677;28;7157;-58
2022/07/30 15:49:22;;;;;;;;;;;;;;;;;;5010314;28;7194;-57
2022/07/30 15:52:07;;;;;;;;;;;;;;;;;;5016230;28;6999;-58
2022/07/30 15:54:33;;;;;;;;;;;;;;;;;;5016034;28;9309;-58
2022/07/30 15:56:59;;;;;;;;;;;;;;;;;;5015979;28;6985;-58
2022/07/30 15:59:25;;;;;;;;;;;;;;;;;;5016438;28;7085;-55
2022/07/30 16:01:51;;;;;;;;;;;;;;;;;;5016747;28;6987;-58
2022/07/30 16:04:28;;;;;;;;;;;;;;;;;;5015332;28;7028;-59
2022/07/30 16:06:56;;;;;;;;;;;;;;;;;;5016192;28;7587;-59
2022/07/30 16:09:22;;;;;;;;;;;;;;;;;;5016010;28;7175;-59
2022/07/30 16:14:52;;;;;;;;;;;;;;;;;;5016043;28;6956;-58
2022/07/30 16:17:17;;;;;;;;;;;;;;;;;;5029169;23;7127;-81
2022/07/30 16:19:43;;;;;;;;;;;;;;;;;;5017597;28;8712;-83
2022/07/30 16:22:09;;;;;;;;;;;;;;;;;;5017279;28;8728;-82
2022/07/30 16:24:35;;;;;;;;;;;;;;;;;;5018240;28;7060;-81
2022/07/30 16:27:01;;;;;;;;;;;;;;;;;;5018224;28;7185;-80
2022/07/30 16:29:26;;;;;;;;;;;;;;;;;;5017879;28;8444;-81
2022/07/30 16:31:52;;;;;;;;;;;;;;;;;;5017548;28;7249;-81
2022/07/30 16:34:18;;;;;;;;;;;;;;;;;;5017451;28;7011;-80
2022/07/30 16:36:43;;;;;;;;;;;;;;;;;;5017668;28;7088;-80
2022/07/30 16:39:09;;;;;;;;;;;;;;;;;;5017340;28;8390;-81
2022/07/30 16:41:35;;;;;;;;;;;;;;;;;;5017523;28;8683;-81
2022/07/30 16:44:01;;;;;;;;;;;;;;;;;;5017386;28;7223;-83
2022/07/30 16:46:26;;;;;;;;;;;;;;;;;;5017561;28;8437;-81
2022/07/30 16:48:52;;;;;;;;;;;;;;;;;;5017771;28;7013;-81
2022/07/30 16:51:17;;;;;;;;;;;;;;;;;;5017547;28;8513;-74
2022/07/30 16:53:43;;;;;;;;;;;;;;;;;;5016767;28;8645;-81
2022/07/30 16:56:09;;;;;;;;;;;;;;;;;;5016618;28;6995;-73
2022/07/30 16:58:35;;;;;;;;;;;;;;;;;;5017709;28;8668;-85
2022/07/30 17:01:00;;;;;;;;;;;;;;;;;;5017327;28;8798;-80
2022/07/30 17:03:26;;;;;;;;;;;;;;;;;;5016830;28;8504;-83
2022/07/30 17:05:52;;;;;;;;;;;;;;;;;;5017289;28;7045;-85
2022/07/30 17:08:18;;;;;;;;;;;;;;;;;;5016546;28;7156;-81
2022/07/30 17:10:44;;;;;;;;;;;;;;;;;;5016785;28;8443;-85
2022/07/30 17:13:10;;;;;;;;;;;;;;;;;;5017241;28;8442;-83
2022/07/30 17:15:36;;;;;;;;;;;;;;;;;;5017391;28;6953;-82
2022/07/30 17:18:02;;;;;;;;;;;;;;;;;;5013673;28;8399;-83
2022/07/30 17:20:29;;;;;;;;;;;;;;;;;;5014368;28;7049;-83
2022/07/30 17:22:55;;;;;;;;;;;;;;;;;;5013749;28;8409;-83
2022/07/30 17:25:21;;;;;;;;;;;;;;;;;;5013606;28;8400;-85
2022/07/30 17:27:46;;;;;;;;;;;;;;;;;;5014351;28;8744;-86
2022/07/30 17:30:12;;;;;;;;;;;;;;;;;;5015329;28;7024;-85
2022/07/30 17:32:38;;;;;;;;;;;;;;;;;;5013553;28;8561;-84
2022/07/30 17:35:03;;;;;;;;;;;;;;;;;;5013890;28;8408;-86
2022/07/30 17:37:29;;;;;;;;;;;;;;;;;;5013208;28;8457;-85
2022/07/30 17:39:54;;;;;;;;;;;;;;;;;;5013429;28;6995;-83
2022/07/30 17:42:20;;;;;;;;;;;;;;;;;;5013657;28;8456;-84
2022/07/30 17:44:45;;;;;;;;;;;;;;;;;;5013163;28;7327;-82
2022/07/30 17:47:11;;;;;;;;;;;;;;;;;;5013026;28;8423;-82
2022/07/30 17:49:36;;;;;;;;;;;;;;;;;;5013905;28;8374;-83
2022/07/30 17:52:02;;;;;;;;;;;;;;;;;;5013099;28;7202;-83
2022/07/30 17:54:28;;;;;;;;;;;;;;;;;;5013223;28;7155;-83
2022/07/30 17:56:53;;;;;;;;;;;;;;;;;;5013203;28;8622;-83
2022/07/30 17:59:19;;;;;;;;;;;;;;;;;;5013288;28;8624;-81
2022/07/30 18:01:44;;;;;;;;;;;;;;;;;;5013347;28;7020;-85
2022/07/30 18:04:10;;;;;;;;;;;;;;;;;;5014121;28;8487;-85
2022/07/30 18:06:36;;;;;;;;;;;;;;;;;;5013489;28;8397;-84
2022/07/30 18:09:03;;;;;;;;;;;;;;;;;;5013696;28;8426;-81
2022/07/30 18:11:28;;;;;;;;;;;;;;;;;;5013316;28;9126;-88
2022/07/30 18:13:55;;;;;;;;;;;;;;;;;;5013260;28;8283;-87
2022/07/30 18:16:22;;;;;;;;;;;;;;;;;;5013250;28;7299;-87
2022/07/30 18:18:48;;;;;;;;;;;;;;;;;;5013019;28;8364;-88
2022/07/30 18:21:13;;;;;;;;;;;;;;;;;;5013227;28;8666;-87
2022/07/30 18:23:39;;;;;;;;;;;;;;;;;;5013133;28;7077;-86
2022/07/30 18:26:05;;;;;;;;;;;;;;;;;;5013125;28;8293;-87
2022/07/30 18:28:31;;;;;;;;;;;;;;;;;;5016266;28;8385;-88
2022/07/30 18:30:56;;;;;;;;;;;;;;;;;;5016878;28;7007;-87
2022/07/30 18:33:22;;;;;;;;;;;;;;;;;;5016710;28;7421;-87
2022/07/30 18:35:48;;;;;;;;;;;;;;;;;;5017167;28;8644;-87
2022/07/30 18:38:13;;;;;;;;;;;;;;;;;;5016564;28;7122;-86
2022/07/30 18:40:39;;;;;;;;;;;;;;;;;;5017401;28;8554;-86
2022/07/30 18:43:05;;;;;;;;;;;;;;;;;;5017436;28;8273;-87
2022/07/30 18:45:31;;;;;;;;;;;;;;;;;;5017133;28;7133;-86
2022/07/30 18:47:56;;;;;;;;;;;;;;;;;;5016587;28;7080;-86
2022/07/30 18:50:23;;;;;;;;;;;;;;;;;;5016951;28;8414;-86
2022/07/30 18:52:49;;;;;;;;;;;;;;;;;;5016500;28;8350;-85
2022/07/30 18:55:17;;;;;;;;;;;;;;;;;;5016577;28;8408;-87
2022/07/30 18:57:43;;;;;;;;;;;;;;;;;;5016789;28;7127;-87
2022/07/30 19:00:11;;;;;;;;;;;;;;;;;;5016211;28;7033;-85
2022/07/30 19:02:37;;;;;;;;;;;;;;;;;;5016247;28;7377;-85
2022/07/30 19:05:02;;;;;;;;;;;;;;;;;;5012575;28;7047;-86
2022/07/30 19:07:28;;;;;;;;;;;;;;;;;;5015810;28;7591;-87
2022/07/30 19:09:54;;;;;;;;;;;;;;;;;;5015795;28;7132;-86
2022/07/30 19:12:21;;;;;;;;;;;;;;;;;;5015675;28;7062;-86
2022/07/30 19:14:47;;;;;;;;;;;;;;;;;;5016009;28;8475;-86
2022/07/30 19:17:13;;;;;;;;;;;;;;;;;;5015130;28;7429;-87
2022/07/30 19:19:40;;;;;;;;;;;;;;;;;;5015347;28;8315;-86
2022/07/30 19:22:05;;;;;;;;;;;;;;;;;;5015604;28;8670;-86
2022/07/30 19:24:31;;;;;;;;;;;;;;;;;;5015762;28;8685;-87
2022/07/30 19:26:57;;;;;;;;;;;;;;;;;;5015405;28;9521;-86
2022/07/30 19:29:23;;;;;;;;;;;;;;;;;;5015541;28;7104;-86
2022/07/30 19:31:48;;;;;;;;;;;;;;;;;;5015320;28;8707;-86
2022/07/30 19:34:14;;;;;;;;;;;;;;;;;;5015523;28;8297;-86
2022/07/30 19:36:39;;;;;;;;;;;;;;;;;;5015381;28;7397;-86
2022/07/30 19:39:05;;;;;;;;;;;;;;;;;;5015205;28;8579;-84
2022/07/30 19:41:39;;;;;;;;;;;;;;;;;;5015000;28;6997;-86
2022/07/30 19:44:08;;;;;;;;;;;;;;;;;;5015203;28;7162;-86
2022/07/30 19:46:34;;;;;;;;;;;;;;;;;;5015380;28;8970;-86
2022/07/30 19:48:59;;;;;;;;;;;;;;;;;;5014763;28;8386;-86
2022/07/30 19:51:25;;;;;;;;;;;;;;;;;;5015045;28;8398;-86
2022/07/30 19:53:51;;;;;;;;;;;;;;;;;;5015460;28;9706;-84
2022/07/30 19:56:16;;;;;;;;;;;;;;;;;;5015187;28;8583;-86
2022/07/30 19:58:42;;;;;;;;;;;;;;;;;;5015004;28;8459;-85
2022/07/30 20:01:11;;;;;;;;;;;;;;;;;;5015027;28;7099;-86
2022/07/30 20:03:37;;;;;;;;;;;;;;;;;;5013730;28;7167;-86
2022/07/30 20:06:06;;;;;;;;;;;;;;;;;;5013306;28;7116;-86
2022/07/30 20:08:32;;;;;;;;;;;;;;;;;;5015168;28;7139;-87
2022/07/30 20:11:00;;;;;;;;;;;;;;;;;;5015376;28;8752;-86
2022/07/30 20:13:26;;;;;;;;;;;;;;;;;;5014901;28;8277;-87
2022/07/30 20:15:52;;;;;;;;;;;;;;;;;;5015373;28;8321;-87
2022/07/30 20:18:17;;;;;;;;;;;;;;;;;;5015079;28;8394;-87
2022/07/30 20:20:43;;;;;;;;;;;;;;;;;;5015216;28;8374;-87
2022/07/30 20:23:09;;;;;;;;;;;;;;;;;;5014887;28;7021;-87
2022/07/30 20:25:34;;;;;;;;;;;;;;;;;;5015024;28;7409;-85
2022/07/30 20:28:00;;;;;;;;;;;;;;;;;;5015194;28;8310;-85
2022/07/30 20:30:26;;;;;;;;;;;;;;;;;;5015522;28;7043;-85
2022/07/30 20:32:52;;;;;;;;;;;;;;;;;;5015174;28;6808;-85
2022/07/30 20:35:17;;;;;;;;;;;;;;;;;;5014900;28;7138;-87
2022/07/30 20:37:43;;;;;;;;;;;;;;;;;;5014964;28;7205;-86
2022/07/30 20:40:09;;;;;;;;;;;;;;;;;;5014484;28;7568;-87
2022/07/30 20:42:34;;;;;;;;;;;;;;;;;;5014990;28;7150;-87
2022/07/30 20:45:00;;;;;;;;;;;;;;;;;;5014570;28;8429;-87
2022/07/30 20:47:26;;;;;;;;;;;;;;;;;;5014441;28;7257;-87
2022/07/30 20:49:51;;;;;;;;;;;;;;;;;;5014588;28;7026;-87
2022/07/30 20:52:17;;;;;;;;;;;;;;;;;;5014566;28;8385;-87
2022/07/30 20:54:42;;;;;;;;;;;;;;;;;;5014307;28;7152;-86
2022/07/30 20:57:08;;;;;;;;;;;;;;;;;;5014198;28;8683;-86
2022/07/30 20:59:36;;;;;;;;;;;;;;;;;;5014878;28;7229;-86
2022/07/30 21:02:05;;;;;;;;;;;;;;;;;;5014486;28;7627;-86
2022/07/30 21:04:31;;;;;;;;;;;;;;;;;;5014413;28;8435;-87